createdAt,value
2019-02-24T00:01:42.614Z,0.00
2019-02-24T00:04:14.135Z,-0.11
2019-02-24T00:06:44.611Z,-0.07
2019-02-24T00:09:16.133Z,-0.06
2019-02-24T00:11:47.535Z,-0.04
2019-02-24T00:14:18.863Z,0.03
2019-02-24T00:16:48.792Z,0.07
2019-02-24T00:19:17.863Z,-0.06
2019-02-24T00:21:46.186Z,0.02
2019-02-24T00:24:15.205Z,-0.01
2019-02-24T00:26:46.477Z,-0.13
2019-02-24T00:29:18.355Z,-0.05
2019-02-24T00:31:49.813Z,-0.07
2019-02-24T00:34:21.159Z,-0.22
2019-02-24T00:36:52.922Z,-0.23
2019-02-24T00:39:25.173Z,-0.22
2019-02-24T00:41:55.546Z,-0.10
2019-02-24T00:44:26.003Z,-0.14
2019-02-24T00:46:55.694Z,-0.18
2019-02-24T00:49:26.291Z,-0.19
2019-02-24T00:51:56.632Z,-0.24
2019-02-24T00:54:29.902Z,-0.30
2019-02-24T00:57:00.756Z,-0.28
2019-02-24T00:59:30.825Z,-0.39
2019-02-24T01:02:02.007Z,-0.42
2019-02-24T01:04:33.329Z,-0.37
2019-02-24T01:07:06.644Z,-0.39
2019-02-24T01:09:40.565Z,-0.41
2019-02-24T01:12:10.459Z,-0.52
2019-02-24T01:14:41.199Z,-0.60
2019-02-24T01:17:11.669Z,-0.65
2019-02-24T01:19:41.519Z,-0.57
2019-02-24T01:22:11.156Z,-0.58
2019-02-24T01:24:42.478Z,-0.55
2019-02-24T01:27:13.842Z,-0.55
2019-02-24T01:29:46.542Z,-0.59
2019-02-24T01:32:16.590Z,-0.62
2019-02-24T01:34:47.822Z,-0.54
2019-02-24T01:37:17.443Z,-0.44
2019-02-24T01:39:47.519Z,-0.44
2019-02-24T01:42:17.218Z,-0.45
2019-02-24T01:44:50.064Z,-0.47
2019-02-24T01:47:21.394Z,-0.48
2019-02-24T01:49:56.177Z,-0.45
2019-02-24T01:52:27.598Z,-0.43
2019-02-24T01:54:58.834Z,-0.42
2019-02-24T01:57:28.623Z,-0.55
2019-02-24T01:59:59.807Z,-0.54
2019-02-24T02:02:29.637Z,-0.56
2019-02-24T02:05:00.307Z,-0.53
2019-02-24T02:07:31.661Z,-0.53
2019-02-24T02:10:01.374Z,-0.64
2019-02-24T02:12:31.446Z,-0.67
2019-02-24T02:15:01.896Z,-0.70
2019-02-24T02:17:32.654Z,-0.78
2019-02-24T02:20:04.110Z,-0.82
2019-02-24T02:22:33.369Z,-0.89
2019-02-24T02:25:05.870Z,-0.95
2019-02-24T02:27:36.623Z,-1.06
2019-02-24T02:30:08.976Z,-1.08
2019-02-24T02:32:38.987Z,-1.10
2019-02-24T02:35:11.722Z,-1.03
2019-02-24T02:37:42.005Z,-1.07
2019-02-24T02:40:12.273Z,-1.02
2019-02-24T02:42:42.948Z,-1.01
2019-02-24T02:45:13.261Z,-1.06
2019-02-24T02:47:43.488Z,-1.03
2019-02-24T02:50:12.799Z,-1.00
2019-02-24T02:52:42.002Z,-1.08
2019-02-24T02:55:11.402Z,-1.02
2019-02-24T02:57:41.722Z,-0.89
2019-02-24T03:00:32.327Z,-0.88
2019-02-24T03:03:02.663Z,-0.86
2019-02-24T03:05:33.009Z,-0.75
2019-02-24T03:08:07.565Z,-0.81
2019-02-24T03:10:37.828Z,-0.79
2019-02-24T03:13:08.112Z,-0.87
2019-02-24T03:15:38.406Z,-0.83
2019-02-24T03:18:08.727Z,-0.87
2019-02-24T03:20:38.069Z,-0.90
2019-02-24T03:23:10.356Z,-0.88
2019-02-24T03:25:40.623Z,-0.89
2019-02-24T03:28:10.928Z,-0.94
2019-02-24T03:30:41.195Z,-0.86
2019-02-24T03:33:11.426Z,-0.83
2019-02-24T03:35:43.668Z,-0.86
2019-02-24T03:38:12.926Z,-0.80
2019-02-24T03:40:42.295Z,-0.80
2019-02-24T03:43:12.506Z,-0.85
2019-02-24T03:45:41.800Z,-0.83
2019-02-24T03:48:12.084Z,-0.80
2019-02-24T03:50:42.422Z,-0.80
2019-02-24T03:53:14.546Z,-0.91
2019-02-24T03:55:44.870Z,-0.92
2019-02-24T03:58:15.487Z,-0.97
2019-02-24T04:00:45.842Z,-0.97
2019-02-24T04:03:16.179Z,-0.97
2019-02-24T04:05:46.707Z,-1.11
2019-02-24T04:08:15.974Z,-1.10
2019-02-24T04:10:46.258Z,-1.14
2019-02-24T04:13:16.564Z,-1.18
2019-02-24T04:15:45.265Z,-1.10
2019-02-24T04:18:14.043Z,-1.08
2019-02-24T04:20:44.240Z,-1.13
2019-02-24T04:23:16.379Z,-1.19
2019-02-24T04:25:46.581Z,-1.28
2019-02-24T04:28:18.736Z,-1.25
2019-02-24T04:30:48.002Z,-1.29
2019-02-24T04:33:17.354Z,-1.32
2019-02-24T04:35:47.951Z,-1.22
2019-02-24T04:38:18.241Z,-1.18
2019-02-24T04:40:48.674Z,-1.17
2019-02-24T04:43:17.988Z,-1.12
2019-02-24T04:45:48.206Z,-1.17
2019-02-24T04:48:18.450Z,-1.15
2019-02-24T04:50:47.237Z,-1.19
2019-02-24T04:53:17.487Z,-1.23
2019-02-24T04:55:48.210Z,-1.35
2019-02-24T04:58:20.432Z,-1.37
2019-02-24T05:00:50.639Z,-1.36
2019-02-24T05:03:19.985Z,-1.39
2019-02-24T05:05:50.227Z,-1.44
2019-02-24T05:08:20.497Z,-1.40
2019-02-24T05:10:49.719Z,-1.42
2019-02-24T05:13:19.951Z,-1.45
2019-02-24T05:15:50.157Z,-1.37
2019-02-24T05:18:20.502Z,-1.34
2019-02-24T05:20:49.765Z,-1.37
2019-02-24T05:23:20.014Z,-1.39
2019-02-24T05:25:50.223Z,-1.39
2019-02-24T05:28:22.353Z,-1.42
2019-02-24T05:30:51.665Z,-1.45
2019-02-24T05:33:22.011Z,-1.44
2019-02-24T05:35:54.094Z,-1.55
2019-02-24T05:38:24.340Z,-1.56
2019-02-24T05:40:53.605Z,-1.63
2019-02-24T05:43:22.970Z,-1.59
2019-02-24T05:45:53.167Z,-1.62
2019-02-24T05:48:23.441Z,-1.66
2019-02-24T05:50:53.669Z,-1.78
2019-02-24T05:53:23.938Z,-1.78
2019-02-24T05:55:54.162Z,-1.77
2019-02-24T05:58:24.508Z,-1.74
2019-02-24T06:00:53.711Z,-1.74
2019-02-24T06:03:23.045Z,-1.77
2019-02-24T06:05:53.330Z,-1.84
2019-02-24T06:08:22.058Z,-1.74
2019-02-24T06:10:51.369Z,-1.67
2019-02-24T06:13:20.644Z,-1.61
2019-02-24T06:15:50.004Z,-1.57
2019-02-24T06:18:20.207Z,-1.47
2019-02-24T06:20:50.469Z,-1.42
2019-02-24T06:23:20.674Z,-1.08
2019-02-24T06:25:52.652Z,-0.58
2019-02-24T06:28:22.869Z,-0.10
2019-02-24T06:30:55.021Z,-0.03
2019-02-24T06:33:25.325Z,0.29
2019-02-24T06:35:57.074Z,0.50
2019-02-24T06:38:27.309Z,1.37
2019-02-24T06:40:59.997Z,2.65
2019-02-24T06:43:29.327Z,3.05
2019-02-24T06:45:58.666Z,4.28
2019-02-24T06:48:27.878Z,5.84
2019-02-24T06:51:07.533Z,6.56
2019-02-24T06:53:36.818Z,7.38
2019-02-24T06:56:07.052Z,7.70
2019-02-24T06:58:36.326Z,6.96
2019-02-24T07:01:05.683Z,7.70
2019-02-24T07:03:37.344Z,8.40
2019-02-24T07:06:07.596Z,9.06
2019-02-24T07:08:36.872Z,9.28
2019-02-24T07:11:07.088Z,9.61
2019-02-24T07:13:36.360Z,9.19
2019-02-24T07:16:05.697Z,10.20
2019-02-24T07:18:35.918Z,10.22
2019-02-24T07:21:08.187Z,10.82
2019-02-24T07:23:38.385Z,11.42
2019-02-24T07:26:07.184Z,11.44
2019-02-24T07:28:37.981Z,10.82
2019-02-24T07:31:08.261Z,10.62
2019-02-24T07:33:39.090Z,10.73
2019-02-24T07:36:09.503Z,11.28
2019-02-24T07:38:39.759Z,10.99
2019-02-24T07:41:09.998Z,10.89
2019-02-24T07:43:39.268Z,11.45
2019-02-24T07:46:08.585Z,12.15
2019-02-24T07:48:37.870Z,12.78
2019-02-24T07:51:08.240Z,13.79
2019-02-24T07:53:38.450Z,13.35
2019-02-24T07:56:10.118Z,14.77
2019-02-24T07:58:41.455Z,13.65
2019-02-24T08:01:11.832Z,14.00
2019-02-24T08:03:41.140Z,14.97
2019-02-24T08:06:09.644Z,15.86
2019-02-24T08:08:39.861Z,15.32
2019-02-24T08:11:10.171Z,14.11
2019-02-24T08:13:40.365Z,14.09
2019-02-24T08:16:09.663Z,13.90
2019-02-24T08:18:38.966Z,12.98
2019-02-24T08:21:10.222Z,12.32
2019-02-24T08:23:42.487Z,10.52
2019-02-24T08:26:12.709Z,9.21
2019-02-24T08:28:44.945Z,8.03
2019-02-24T08:31:14.210Z,7.35
2019-02-24T08:33:44.725Z,9.60
2019-02-24T08:36:14.949Z,10.84
2019-02-24T08:38:44.308Z,11.16
2019-02-24T08:41:15.982Z,11.72
2019-02-24T08:43:46.321Z,13.23
2019-02-24T08:46:15.584Z,12.20
2019-02-24T08:48:44.899Z,9.85
2019-02-24T08:51:15.629Z,9.81
2019-02-24T08:53:46.106Z,11.23
2019-02-24T08:56:16.368Z,10.23
2019-02-24T08:58:46.678Z,9.42
2019-02-24T09:01:16.973Z,8.48
2019-02-24T09:03:47.215Z,8.96
2019-02-24T09:06:17.450Z,9.32
2019-02-24T09:08:46.769Z,8.98
2019-02-24T09:11:18.320Z,8.68
2019-02-24T09:13:47.119Z,9.84
2019-02-24T09:16:18.515Z,10.15
2019-02-24T09:18:48.783Z,9.20
2019-02-24T09:21:20.179Z,9.21
2019-02-24T09:23:52.299Z,8.11
2019-02-24T09:26:21.521Z,7.05
2019-02-24T09:28:51.870Z,6.56
2019-02-24T09:31:21.581Z,6.94
2019-02-24T09:33:51.823Z,6.66
2019-02-24T09:36:21.095Z,6.71
2019-02-24T09:38:52.964Z,6.76
2019-02-24T09:41:24.688Z,7.31
2019-02-24T09:43:54.018Z,7.37
2019-02-24T09:46:24.222Z,8.16
2019-02-24T09:48:53.504Z,8.93
2019-02-24T09:51:23.693Z,8.79
2019-02-24T09:53:53.940Z,8.23
2019-02-24T09:56:24.147Z,7.84
2019-02-24T09:58:53.439Z,7.91
2019-02-24T10:01:23.804Z,7.32
2019-02-24T10:03:54.089Z,7.33
2019-02-24T10:06:24.271Z,7.74
2019-02-24T10:08:54.527Z,7.69
2019-02-24T10:11:24.747Z,7.86
2019-02-24T10:13:54.097Z,7.53
2019-02-24T10:16:28.907Z,7.45
2019-02-24T10:18:59.125Z,7.40
2019-02-24T10:21:29.356Z,7.10
2019-02-24T10:23:59.659Z,6.65
2019-02-24T10:26:29.941Z,6.49
2019-02-24T10:29:00.240Z,6.57
2019-02-24T10:31:30.516Z,6.58
2019-02-24T10:34:00.810Z,6.79
2019-02-24T10:36:31.025Z,6.77
2019-02-24T10:39:02.960Z,6.58
2019-02-24T10:41:32.301Z,6.40
2019-02-24T10:44:02.522Z,6.46
2019-02-24T10:46:32.722Z,6.77
2019-02-24T10:49:03.561Z,6.78
2019-02-24T10:51:34.892Z,6.72
2019-02-24T10:54:05.229Z,7.05
2019-02-24T10:56:36.940Z,7.41
2019-02-24T10:59:06.563Z,7.55
2019-02-24T11:01:36.810Z,7.40
2019-02-24T11:04:08.156Z,6.88
2019-02-24T11:06:41.229Z,6.93
2019-02-24T11:09:11.403Z,6.79
2019-02-24T11:11:41.772Z,6.86
2019-02-24T11:14:14.125Z,7.05
2019-02-24T11:16:44.385Z,7.20
2019-02-24T11:19:13.740Z,7.21
2019-02-24T11:21:43.145Z,7.01
2019-02-24T11:24:14.851Z,7.05
2019-02-24T11:26:44.154Z,6.46
2019-02-24T11:29:13.412Z,6.91
2019-02-24T11:31:43.724Z,7.29
2019-02-24T11:34:15.921Z,7.47
2019-02-24T11:36:45.222Z,7.67
2019-02-24T11:39:16.877Z,7.92
2019-02-24T11:41:45.719Z,7.88
2019-02-24T11:44:14.978Z,7.74
2019-02-24T11:46:45.873Z,7.75
2019-02-24T11:49:16.099Z,7.84
2019-02-24T11:51:45.405Z,7.78
2019-02-24T11:54:14.657Z,7.77
2019-02-24T11:56:45.229Z,7.71
2019-02-24T11:59:14.509Z,8.01
2019-02-24T12:01:47.502Z,7.86
2019-02-24T12:04:15.799Z,7.92
2019-02-24T12:06:46.818Z,7.71
2019-02-24T12:09:16.129Z,7.31
2019-02-24T12:11:46.959Z,7.70
2019-02-24T12:14:15.696Z,7.73
2019-02-24T12:16:45.935Z,7.69
2019-02-24T12:19:15.213Z,7.78
2019-02-24T12:21:45.569Z,7.68
2019-02-24T12:24:15.804Z,7.95
2019-02-24T12:26:45.140Z,8.04
2019-02-24T12:29:15.342Z,7.94
2019-02-24T12:31:56.182Z,8.13
2019-02-24T12:34:18.478Z,8.28
2019-02-24T12:36:48.750Z,8.19
2019-02-24T12:39:18.086Z,8.13
2019-02-24T12:41:47.392Z,8.21
2019-02-24T12:44:17.612Z,8.09
2019-02-24T12:46:48.023Z,8.20
2019-02-24T12:49:17.362Z,8.28
2019-02-24T12:51:47.692Z,8.49
2019-02-24T12:54:18.006Z,8.61
2019-02-24T12:56:47.264Z,8.62
2019-02-24T12:59:16.580Z,8.58
2019-02-24T13:01:48.134Z,8.40
2019-02-24T13:04:16.633Z,8.42
2019-02-24T13:06:45.097Z,8.61
2019-02-24T13:09:14.428Z,8.61
2019-02-24T13:11:45.304Z,8.63
2019-02-24T13:14:15.564Z,8.60
2019-02-24T13:16:45.871Z,8.65
2019-02-24T13:19:17.587Z,8.71
2019-02-24T13:21:47.581Z,8.70
2019-02-24T13:24:17.862Z,8.65
2019-02-24T13:26:47.214Z,8.69
2019-02-24T13:29:16.546Z,8.68
2019-02-24T13:31:45.859Z,8.71
2019-02-24T13:34:15.170Z,8.53
2019-02-24T13:36:44.469Z,8.62
2019-02-24T13:39:13.807Z,8.54
2019-02-24T13:41:44.187Z,8.62
2019-02-24T13:44:14.416Z,8.65
2019-02-24T13:46:44.619Z,8.82
2019-02-24T13:49:13.943Z,8.94
2019-02-24T13:51:43.485Z,9.02
2019-02-24T13:54:13.740Z,8.98
2019-02-24T13:56:45.437Z,8.92
2019-02-24T13:59:15.831Z,8.98
2019-02-24T14:01:46.608Z,9.03
2019-02-24T14:04:17.029Z,8.99
2019-02-24T14:06:45.749Z,8.92
2019-02-24T14:09:16.075Z,8.75
2019-02-24T14:11:46.257Z,8.60
2019-02-24T14:14:16.565Z,8.82
2019-02-24T14:16:48.655Z,8.91
2019-02-24T14:19:20.458Z,8.83
2019-02-24T14:21:50.689Z,8.91
2019-02-24T14:24:20.078Z,8.93
2019-02-24T14:26:50.444Z,8.82
2019-02-24T14:29:20.378Z,8.68
2019-02-24T14:31:50.692Z,8.53
2019-02-24T14:34:19.981Z,8.69
2019-02-24T14:36:49.200Z,8.65
2019-02-24T14:39:19.480Z,8.52
2019-02-24T14:41:48.845Z,8.61
2019-02-24T14:44:19.409Z,8.49
2019-02-24T14:46:49.742Z,8.59
2019-02-24T14:49:19.058Z,8.69
2019-02-24T14:51:48.359Z,8.58
2019-02-24T14:54:18.595Z,8.67
2019-02-24T14:56:47.086Z,8.71
2019-02-24T14:59:17.408Z,8.68
2019-02-24T15:01:47.730Z,8.56
2019-02-24T15:04:17.014Z,8.77
2019-02-24T15:06:46.393Z,8.77
2019-02-24T15:09:15.629Z,8.65
2019-02-24T15:11:46.401Z,8.61
2019-02-24T15:14:16.659Z,8.74
2019-02-24T15:16:48.814Z,8.63
2019-02-24T15:19:20.503Z,8.61
2019-02-24T15:21:50.730Z,8.62
2019-02-24T15:24:21.625Z,8.56
2019-02-24T15:26:51.909Z,8.40
2019-02-24T15:29:22.193Z,8.28
2019-02-24T15:31:53.362Z,8.40
2019-02-24T15:34:25.744Z,8.35
2019-02-24T15:36:55.136Z,8.38
2019-02-24T15:39:25.326Z,8.46
2019-02-24T15:41:55.694Z,8.47
2019-02-24T15:44:24.977Z,8.42
2019-02-24T15:46:55.214Z,8.37
2019-02-24T15:49:28.944Z,8.33
2019-02-24T15:52:09.538Z,8.30
2019-02-24T15:54:33.004Z,8.31
2019-02-24T15:57:03.250Z,8.24
2019-02-24T15:59:35.344Z,8.22
2019-02-24T16:02:05.580Z,8.11
2019-02-24T16:04:34.263Z,8.07
2019-02-24T16:07:04.547Z,8.00
2019-02-24T16:09:36.204Z,7.94
2019-02-24T16:12:07.916Z,7.96
2019-02-24T16:14:38.209Z,7.95
2019-02-24T16:17:08.462Z,7.75
2019-02-24T16:19:37.810Z,7.66
2019-02-24T16:22:07.106Z,7.62
2019-02-24T16:24:35.590Z,7.55
2019-02-24T16:27:05.193Z,7.48
2019-02-24T16:29:33.667Z,7.45
2019-02-24T16:32:05.534Z,7.43
2019-02-24T16:34:39.212Z,7.37
2019-02-24T16:37:11.175Z,7.19
2019-02-24T16:39:41.419Z,7.10
2019-02-24T16:42:11.307Z,7.12
2019-02-24T16:44:40.710Z,6.86
2019-02-24T16:47:12.388Z,6.90
2019-02-24T16:49:43.458Z,6.85
2019-02-24T16:52:12.180Z,6.77
2019-02-24T16:54:42.495Z,6.69
2019-02-24T16:57:12.807Z,6.63
2019-02-24T16:59:42.078Z,6.57
2019-02-24T17:02:12.834Z,6.46
2019-02-24T17:04:43.190Z,6.41
2019-02-24T17:07:13.392Z,6.43
2019-02-24T17:09:42.657Z,6.43
2019-02-24T17:12:11.949Z,6.32
2019-02-24T17:14:45.648Z,6.21
2019-02-24T17:17:14.917Z,6.24
2019-02-24T17:19:48.431Z,6.24
2019-02-24T17:22:17.678Z,6.18
2019-02-24T17:24:47.989Z,6.00
2019-02-24T17:27:18.225Z,5.91
2019-02-24T17:29:50.645Z,5.78
2019-02-24T17:32:20.816Z,5.64
2019-02-24T17:34:53.129Z,5.53
2019-02-24T17:37:23.440Z,5.47
2019-02-24T17:39:53.695Z,5.43
2019-02-24T17:42:24.836Z,5.35
2019-02-24T17:44:55.122Z,5.34
2019-02-24T17:47:25.352Z,5.29
2019-02-24T17:49:57.075Z,5.18
2019-02-24T17:52:27.282Z,5.18
2019-02-24T17:54:59.532Z,5.10
2019-02-24T17:57:29.840Z,5.12
2019-02-24T17:59:59.227Z,5.09
2019-02-24T18:02:29.519Z,5.09
2019-02-24T18:04:59.835Z,5.07
2019-02-24T18:07:30.885Z,5.09
2019-02-24T18:10:02.721Z,5.29
2019-02-24T18:12:32.036Z,5.16
2019-02-24T18:15:02.384Z,4.95
2019-02-24T18:17:32.845Z,4.88
2019-02-24T18:20:03.116Z,4.83
2019-02-24T18:22:33.343Z,4.77
2019-02-24T18:25:05.452Z,4.74
2019-02-24T18:27:34.722Z,4.68
2019-02-24T18:30:05.192Z,4.63
2019-02-24T18:32:36.943Z,4.60
2019-02-24T18:35:06.531Z,4.57
2019-02-24T18:37:37.095Z,4.59
2019-02-24T18:40:09.550Z,4.58
2019-02-24T18:42:41.477Z,4.62
2019-02-24T18:45:15.132Z,4.73
2019-02-24T18:47:43.756Z,4.76
2019-02-24T18:50:18.036Z,4.74
2019-02-24T18:52:51.316Z,4.79
2019-02-24T18:55:20.685Z,4.69
2019-02-24T18:57:52.913Z,4.74
2019-02-24T19:00:24.519Z,4.66
2019-02-24T19:02:55.455Z,4.65
2019-02-24T19:05:24.773Z,4.66
2019-02-24T19:07:54.105Z,4.65
2019-02-24T19:10:25.901Z,4.56
2019-02-24T19:12:55.166Z,4.46
2019-02-24T19:15:27.885Z,4.37
2019-02-24T19:17:57.196Z,4.20
2019-02-24T19:20:29.281Z,4.20
2019-02-24T19:23:00.913Z,4.02
2019-02-24T19:25:31.199Z,3.93
2019-02-24T19:28:03.026Z,3.91
2019-02-24T19:30:34.700Z,3.91
2019-02-24T19:33:05.008Z,3.93
2019-02-24T19:35:35.262Z,3.84
2019-02-24T19:38:04.593Z,3.88
2019-02-24T19:40:33.975Z,3.87
2019-02-24T19:43:04.254Z,3.79
2019-02-24T19:45:33.475Z,3.70
2019-02-24T19:48:03.727Z,3.67
2019-02-24T19:50:33.106Z,3.57
2019-02-24T19:53:04.093Z,3.52
2019-02-24T19:55:34.287Z,3.52
2019-02-24T19:58:03.641Z,3.48
2019-02-24T20:00:32.861Z,3.44
2019-02-24T20:03:03.724Z,3.35
2019-02-24T20:05:33.099Z,3.37
2019-02-24T20:08:01.860Z,3.26
2019-02-24T20:10:31.187Z,3.19
2019-02-24T20:13:01.956Z,3.19
2019-02-24T20:15:32.205Z,3.18
2019-02-24T20:18:03.214Z,3.08
2019-02-24T20:20:32.462Z,2.98
2019-02-24T20:23:02.787Z,2.94
2019-02-24T20:25:33.046Z,2.92
2019-02-24T20:28:02.413Z,2.88
2019-02-24T20:30:36.494Z,2.88
2019-02-24T20:33:06.860Z,2.86
2019-02-24T20:35:37.041Z,2.85
2019-02-24T20:38:07.332Z,2.81
2019-02-24T20:40:36.629Z,2.78
2019-02-24T20:43:06.968Z,2.78
2019-02-24T20:45:39.155Z,2.73
2019-02-24T20:48:09.492Z,2.67
2019-02-24T20:50:39.783Z,2.65
2019-02-24T20:53:10.029Z,2.63
2019-02-24T20:55:39.342Z,2.59
2019-02-24T20:58:09.588Z,2.56
2019-02-24T21:00:44.963Z,2.58
2019-02-24T21:03:15.327Z,2.47
2019-02-24T21:05:43.806Z,2.47
2019-02-24T21:08:13.225Z,2.49
2019-02-24T21:10:43.438Z,2.46
2019-02-24T21:13:13.698Z,2.43
2019-02-24T21:15:42.520Z,2.39
2019-02-24T21:18:12.871Z,2.41
2019-02-24T21:20:43.155Z,2.38
2019-02-24T21:23:13.373Z,2.30
2019-02-24T21:25:42.598Z,2.17
2019-02-24T21:28:12.436Z,2.27
2019-02-24T21:30:41.752Z,2.24
2019-02-24T21:33:11.156Z,2.24
2019-02-24T21:35:40.422Z,2.14
2019-02-24T21:38:09.760Z,2.12
2019-02-24T21:40:40.050Z,2.09
2019-02-24T21:43:10.851Z,2.03
2019-02-24T21:45:41.671Z,2.08
2019-02-24T21:48:11.986Z,2.08
2019-02-24T21:50:41.808Z,2.00
2019-02-24T21:53:12.013Z,2.00
2019-02-24T21:55:44.143Z,1.94
2019-02-24T21:58:14.349Z,2.00
2019-02-24T22:00:44.591Z,2.01
2019-02-24T22:03:14.865Z,2.02
2019-02-24T22:05:45.155Z,2.03
2019-02-24T22:08:15.373Z,1.98
2019-02-24T22:10:47.508Z,1.98
2019-02-24T22:13:16.821Z,1.97
2019-02-24T22:15:47.100Z,1.93
2019-02-24T22:18:15.557Z,1.87
2019-02-24T22:20:44.861Z,1.91
2019-02-24T22:23:15.252Z,1.89
2019-02-24T22:25:45.592Z,1.85
2019-02-24T22:28:15.789Z,1.78
2019-02-24T22:30:45.089Z,1.64
2019-02-24T22:33:16.813Z,1.64
2019-02-24T22:35:46.099Z,1.60
2019-02-24T22:38:17.806Z,1.55
2019-02-24T22:40:54.233Z,1.56
2019-02-24T22:43:19.092Z,1.70
2019-02-24T22:45:49.387Z,1.66
2019-02-24T22:48:19.614Z,1.61
2019-02-24T22:50:51.758Z,1.63
2019-02-24T22:53:22.020Z,1.62
2019-02-24T22:55:52.269Z,1.69
2019-02-24T22:58:22.548Z,1.66
2019-02-24T23:00:59.527Z,1.61
2019-02-24T23:03:31.501Z,1.59
2019-02-24T23:06:01.870Z,1.46
2019-02-24T23:08:31.136Z,1.45
2019-02-24T23:11:01.454Z,1.48
2019-02-24T23:13:33.551Z,1.37
2019-02-24T23:16:03.789Z,1.39
2019-02-24T23:18:33.107Z,1.35
2019-02-24T23:21:03.350Z,1.41
2019-02-24T23:23:34.752Z,1.41
2019-02-24T23:26:05.538Z,1.50
2019-02-24T23:28:35.724Z,1.47
2019-02-24T23:31:06.052Z,1.51
2019-02-24T23:33:35.353Z,1.31
2019-02-24T23:36:05.676Z,1.30
2019-02-24T23:38:35.956Z,1.35
2019-02-24T23:41:05.247Z,1.29
2019-02-24T23:43:35.439Z,1.25
2019-02-24T23:46:05.741Z,1.24
2019-02-24T23:48:34.974Z,1.10
2019-02-24T23:51:05.295Z,0.99
2019-02-24T23:53:37.522Z,0.93
2019-02-24T23:56:07.811Z,0.90
2019-02-24T23:58:37.119Z,0.94
